createdAt,value
2018-12-25T00:00:16.140Z,0
2018-12-25T00:01:17.523Z,0
2018-12-25T00:02:18.902Z,0
2018-12-25T00:03:20.281Z,0
2018-12-25T00:04:21.658Z,0
2018-12-25T00:05:23.036Z,0
2018-12-25T00:06:24.420Z,0
2018-12-25T00:07:25.800Z,0
2018-12-25T00:08:27.183Z,0
2018-12-25T00:09:28.564Z,0
2018-12-25T00:10:29.939Z,0
2018-12-25T00:11:31.318Z,0
2018-12-25T00:12:32.692Z,0
2018-12-25T00:13:34.072Z,0
2018-12-25T00:14:35.455Z,0
2018-12-25T00:15:36.832Z,0
2018-12-25T00:16:38.207Z,0
2018-12-25T00:17:39.586Z,0
2018-12-25T00:18:40.963Z,0
2018-12-25T00:19:42.348Z,0
2018-12-25T00:20:43.719Z,0
2018-12-25T00:21:45.100Z,0
2018-12-25T00:22:46.481Z,0
2018-12-25T00:23:47.858Z,0
2018-12-25T00:24:49.235Z,0
2018-12-25T00:25:50.611Z,0
2018-12-25T00:26:51.989Z,0
2018-12-25T00:27:53.362Z,0
2018-12-25T00:28:54.745Z,0
2018-12-25T00:29:56.120Z,0
2018-12-25T00:30:57.499Z,0
2018-12-25T00:31:58.877Z,0
2018-12-25T00:33:00.334Z,0
2018-12-25T00:34:01.724Z,0
2018-12-25T00:35:03.102Z,0
2018-12-25T00:36:04.487Z,0
2018-12-25T00:37:05.871Z,0
2018-12-25T00:38:07.245Z,0
2018-12-25T00:39:08.622Z,0
2018-12-25T00:40:09.998Z,0
2018-12-25T00:41:11.378Z,0
2018-12-25T00:42:12.756Z,0
2018-12-25T00:43:14.141Z,0
2018-12-25T00:44:15.518Z,0
2018-12-25T00:45:18.293Z,0
2018-12-25T00:46:18.236Z,0
2018-12-25T00:47:19.616Z,0
2018-12-25T00:48:20.999Z,0
2018-12-25T00:49:22.375Z,0
2018-12-25T00:50:23.754Z,0
2018-12-25T00:51:25.136Z,0
2018-12-25T00:52:26.508Z,0
2018-12-25T00:53:27.887Z,0
2018-12-25T00:54:29.263Z,0
2018-12-25T00:55:30.642Z,0
2018-12-25T00:56:32.022Z,0
2018-12-25T00:57:33.401Z,0
2018-12-25T00:58:34.781Z,0
2018-12-25T00:59:36.160Z,0
2018-12-25T01:00:37.539Z,0
2018-12-25T01:01:38.917Z,0
2018-12-25T01:02:40.299Z,0
2018-12-25T01:03:41.678Z,0
2018-12-25T01:04:43.056Z,0
2018-12-25T01:05:44.439Z,0
2018-12-25T01:06:45.814Z,0
2018-12-25T01:07:47.193Z,0
2018-12-25T01:08:48.565Z,0
2018-12-25T01:09:49.950Z,0
2018-12-25T01:10:51.330Z,0
2018-12-25T01:11:52.711Z,0
2018-12-25T01:12:54.089Z,0
2018-12-25T01:13:55.464Z,0
2018-12-25T01:14:56.845Z,0
2018-12-25T01:15:58.224Z,0
2018-12-25T01:16:59.600Z,0
2018-12-25T01:18:00.982Z,0
2018-12-25T01:19:02.361Z,0
2018-12-25T01:20:03.741Z,0
2018-12-25T01:21:05.117Z,0
2018-12-25T01:22:06.493Z,0
2018-12-25T01:23:07.912Z,0
2018-12-25T01:24:09.358Z,0
2018-12-25T01:25:10.736Z,0
2018-12-25T01:26:12.117Z,0
2018-12-25T01:27:13.495Z,0
2018-12-25T01:28:14.872Z,0
2018-12-25T01:29:16.250Z,0
2018-12-25T01:30:17.627Z,0
2018-12-25T01:31:19.007Z,0
2018-12-25T01:32:20.384Z,0
2018-12-25T01:33:21.762Z,0
2018-12-25T01:34:23.148Z,0
2018-12-25T01:35:24.523Z,0
2018-12-25T01:36:25.902Z,0
2018-12-25T01:37:27.279Z,0
2018-12-25T01:38:28.657Z,0
2018-12-25T01:39:30.035Z,0
2018-12-25T01:40:31.417Z,0
2018-12-25T01:41:32.790Z,0
2018-12-25T01:42:34.164Z,0
2018-12-25T01:43:35.556Z,0
2018-12-25T01:44:36.920Z,0
2018-12-25T01:45:38.301Z,0
2018-12-25T01:46:39.678Z,0
2018-12-25T01:47:41.062Z,0
2018-12-25T01:48:42.441Z,0
2018-12-25T01:49:43.818Z,0
2018-12-25T01:50:45.198Z,0
2018-12-25T01:51:46.576Z,0
2018-12-25T01:52:47.956Z,0
2018-12-25T01:53:49.335Z,0
2018-12-25T01:54:50.713Z,0
2018-12-25T01:55:52.093Z,0
2018-12-25T01:56:53.471Z,0
2018-12-25T01:57:54.851Z,0
2018-12-25T01:58:56.229Z,0
2018-12-25T01:59:57.608Z,0
2018-12-25T02:00:58.990Z,0
2018-12-25T02:02:00.372Z,0
2018-12-25T02:03:01.751Z,0
2018-12-25T02:04:03.131Z,0
2018-12-25T02:05:04.509Z,0
2018-12-25T02:06:05.892Z,0
2018-12-25T02:07:07.265Z,0
2018-12-25T02:08:08.651Z,0
2018-12-25T02:09:10.032Z,0
2018-12-25T02:10:11.414Z,0
2018-12-25T02:11:12.791Z,0
2018-12-25T02:12:14.169Z,0
2018-12-25T02:13:15.547Z,0
2018-12-25T02:14:17.039Z,0
2018-12-25T02:15:18.519Z,0
2018-12-25T02:16:19.788Z,0
2018-12-25T02:17:21.170Z,0
2018-12-25T02:18:22.547Z,0
2018-12-25T02:19:23.928Z,0
2018-12-25T02:20:25.308Z,0
2018-12-25T02:21:26.693Z,0
2018-12-25T02:22:28.068Z,0
2018-12-25T02:23:29.445Z,0
2018-12-25T02:24:30.823Z,0
2018-12-25T02:25:32.199Z,0
2018-12-25T02:26:33.577Z,0
2018-12-25T02:27:34.957Z,0
2018-12-25T02:28:36.338Z,0
2018-12-25T02:29:37.721Z,0
2018-12-25T02:30:39.103Z,0
2018-12-25T02:31:40.483Z,0
2018-12-25T02:32:41.866Z,0
2018-12-25T02:33:43.240Z,0
2018-12-25T02:34:44.616Z,0
2018-12-25T02:35:46.001Z,0
2018-12-25T02:36:47.376Z,0
2018-12-25T02:37:48.762Z,0
2018-12-25T02:38:50.144Z,0
2018-12-25T02:39:51.524Z,0
2018-12-25T02:40:52.896Z,0
2018-12-25T02:41:54.274Z,0
2018-12-25T02:42:55.648Z,0
2018-12-25T02:43:57.028Z,0
2018-12-25T02:44:58.409Z,0
2018-12-25T02:45:59.786Z,0
2018-12-25T02:47:01.165Z,0
2018-12-25T02:48:02.540Z,0
2018-12-25T02:49:03.919Z,0
2018-12-25T02:50:05.294Z,0
2018-12-25T02:51:06.682Z,0
2018-12-25T02:52:08.055Z,0
2018-12-25T02:53:09.438Z,0
2018-12-25T02:54:10.779Z,0
2018-12-25T02:55:12.164Z,0
2018-12-25T02:56:13.542Z,0
2018-12-25T02:57:14.923Z,0
2018-12-25T02:58:16.299Z,0
2018-12-25T02:59:17.679Z,0
2018-12-25T03:00:19.060Z,0
2018-12-25T03:01:20.438Z,0
2018-12-25T03:02:21.816Z,0
2018-12-25T03:03:23.191Z,0
2018-12-25T03:04:24.584Z,0
2018-12-25T03:05:26.082Z,0
2018-12-25T03:06:27.464Z,0
2018-12-25T03:07:28.838Z,0
2018-12-25T03:08:30.219Z,0
2018-12-25T03:09:31.590Z,0
2018-12-25T03:10:32.971Z,0
2018-12-25T03:11:34.346Z,0
2018-12-25T03:12:35.727Z,0
2018-12-25T03:13:37.114Z,0
2018-12-25T03:14:38.492Z,0
2018-12-25T03:15:39.870Z,0
2018-12-25T03:16:41.245Z,0
2018-12-25T03:17:42.618Z,0
2018-12-25T03:18:43.996Z,0
2018-12-25T03:19:45.373Z,0
2018-12-25T03:20:46.756Z,0
2018-12-25T03:21:48.138Z,0
2018-12-25T03:22:49.514Z,0
2018-12-25T03:23:50.891Z,0
2018-12-25T03:24:52.271Z,0
2018-12-25T03:25:53.649Z,0
2018-12-25T03:26:55.026Z,0
2018-12-25T03:27:56.411Z,0
2018-12-25T03:28:57.793Z,0
2018-12-25T03:29:59.174Z,0
2018-12-25T03:31:00.549Z,0
2018-12-25T03:32:01.930Z,0
2018-12-25T03:33:03.304Z,0
2018-12-25T03:34:04.681Z,0
2018-12-25T03:35:06.157Z,0
2018-12-25T03:36:07.407Z,0
2018-12-25T03:37:08.784Z,0
2018-12-25T03:38:10.159Z,0
2018-12-25T03:39:11.536Z,0
2018-12-25T03:40:12.917Z,0
2018-12-25T03:41:14.298Z,0
2018-12-25T03:42:15.677Z,0
2018-12-25T03:43:17.168Z,0
2018-12-25T03:44:18.410Z,0
2018-12-25T03:45:19.799Z,0
2018-12-25T03:46:21.165Z,0
2018-12-25T03:47:22.544Z,0
2018-12-25T03:48:23.923Z,0
2018-12-25T03:49:25.303Z,0
2018-12-25T03:50:26.683Z,0
2018-12-25T03:51:28.063Z,0
2018-12-25T03:52:29.446Z,0
2018-12-25T03:53:30.823Z,0
2018-12-25T03:54:32.202Z,0
2018-12-25T03:55:33.645Z,0
2018-12-25T03:56:35.042Z,0
2018-12-25T03:57:36.424Z,0
2018-12-25T03:58:37.798Z,0
2018-12-25T03:59:39.176Z,0
2018-12-25T04:00:40.557Z,0
2018-12-25T04:01:41.934Z,0
2018-12-25T04:02:43.311Z,0
2018-12-25T04:03:44.689Z,0
2018-12-25T04:04:46.070Z,0
2018-12-25T04:05:47.450Z,0
2018-12-25T04:06:48.828Z,0
2018-12-25T04:07:50.207Z,0
2018-12-25T04:08:51.549Z,0
2018-12-25T04:09:52.926Z,0
2018-12-25T04:10:54.305Z,0
2018-12-25T04:11:55.687Z,0
2018-12-25T04:12:57.066Z,0
2018-12-25T04:13:58.443Z,0
2018-12-25T04:14:59.818Z,0
2018-12-25T04:16:01.202Z,0
2018-12-25T04:17:02.577Z,0
2018-12-25T04:18:03.956Z,0
2018-12-25T04:19:05.337Z,0
2018-12-25T04:20:06.711Z,0
2018-12-25T04:21:08.089Z,0
2018-12-25T04:22:09.446Z,0
2018-12-25T04:23:10.813Z,0
2018-12-25T04:24:12.186Z,0
2018-12-25T04:25:13.569Z,0
2018-12-25T04:26:14.950Z,0
2018-12-25T04:27:16.324Z,0
2018-12-25T04:28:17.706Z,0
2018-12-25T04:29:19.084Z,0
2018-12-25T04:30:20.468Z,0
2018-12-25T04:31:21.856Z,0
2018-12-25T04:32:23.223Z,0
2018-12-25T04:33:24.604Z,0
2018-12-25T04:34:25.981Z,0
2018-12-25T04:35:27.357Z,0
2018-12-25T04:36:28.740Z,0
2018-12-25T04:37:30.121Z,0
2018-12-25T04:38:31.501Z,0
2018-12-25T04:39:32.879Z,0
2018-12-25T04:40:34.260Z,0
2018-12-25T04:41:35.636Z,0
2018-12-25T04:42:37.015Z,0
2018-12-25T04:43:38.394Z,0
2018-12-25T04:44:39.776Z,0
2018-12-25T04:45:41.123Z,0
2018-12-25T04:46:42.585Z,0
2018-12-25T04:47:43.966Z,0
2018-12-25T04:48:45.343Z,0
2018-12-25T04:49:46.721Z,0
2018-12-25T04:50:48.100Z,0
2018-12-25T04:51:49.480Z,0
2018-12-25T04:52:50.860Z,0
2018-12-25T04:53:52.239Z,0
2018-12-25T04:54:53.624Z,0
2018-12-25T04:55:55.000Z,0
2018-12-25T04:56:56.380Z,0
2018-12-25T04:57:57.758Z,0
2018-12-25T04:58:59.137Z,0
2018-12-25T05:00:00.516Z,0
2018-12-25T05:01:01.897Z,0
2018-12-25T05:02:03.276Z,0
2018-12-25T05:03:04.657Z,0
2018-12-25T05:04:06.035Z,0
2018-12-25T05:05:07.415Z,0
2018-12-25T05:06:08.794Z,0
2018-12-25T05:07:10.176Z,0
2018-12-25T05:08:11.555Z,0
2018-12-25T05:09:12.933Z,0
2018-12-25T05:10:14.315Z,0
2018-12-25T05:11:15.687Z,0
2018-12-25T05:12:17.065Z,0
2018-12-25T05:13:18.442Z,0
2018-12-25T05:14:19.819Z,0
2018-12-25T05:15:21.200Z,0
2018-12-25T05:16:22.583Z,0
2018-12-25T05:17:23.962Z,0
2018-12-25T05:18:25.341Z,0
2018-12-25T05:19:26.719Z,0
2018-12-25T05:20:28.098Z,0
2018-12-25T05:21:29.477Z,0
2018-12-25T05:22:30.860Z,0
2018-12-25T05:23:32.242Z,0
2018-12-25T05:24:33.620Z,0
2018-12-25T05:25:34.998Z,0
2018-12-25T05:26:36.370Z,0
2018-12-25T05:27:37.751Z,0
2018-12-25T05:28:39.127Z,0
2018-12-25T05:29:40.510Z,0
2018-12-25T05:30:41.889Z,0
2018-12-25T05:31:43.269Z,0
2018-12-25T05:32:44.651Z,0
2018-12-25T05:33:46.049Z,0
2018-12-25T05:34:47.405Z,0
2018-12-25T05:35:48.791Z,0
2018-12-25T05:36:50.228Z,0
2018-12-25T05:37:51.633Z,0
2018-12-25T05:38:53.010Z,0
2018-12-25T05:39:54.390Z,0
2018-12-25T05:40:55.769Z,0
2018-12-25T05:41:57.150Z,0
2018-12-25T05:42:58.526Z,0
2018-12-25T05:43:59.912Z,0
2018-12-25T05:45:01.292Z,0
2018-12-25T05:46:02.668Z,0
2018-12-25T05:47:04.046Z,0
2018-12-25T05:48:05.420Z,0
2018-12-25T05:49:06.799Z,0
2018-12-25T05:50:08.179Z,0
2018-12-25T05:51:09.563Z,0
2018-12-25T05:52:10.943Z,0
2018-12-25T05:53:12.320Z,0
2018-12-25T05:54:13.698Z,0
2018-12-25T05:55:15.078Z,0
2018-12-25T05:56:16.494Z,0
2018-12-25T05:57:17.834Z,0
2018-12-25T05:58:19.213Z,0
2018-12-25T05:59:20.592Z,0
2018-12-25T06:00:21.969Z,0
2018-12-25T06:01:23.347Z,0
2018-12-25T06:02:24.725Z,0
2018-12-25T06:03:26.106Z,0
2018-12-25T06:04:27.485Z,0
2018-12-25T06:05:28.864Z,0
2018-12-25T06:06:30.242Z,0
2018-12-25T06:07:31.623Z,0
2018-12-25T06:08:33.003Z,0
2018-12-25T06:09:34.378Z,0
2018-12-25T06:10:35.762Z,0
2018-12-25T06:11:37.136Z,0
2018-12-25T06:12:38.518Z,0
2018-12-25T06:13:39.903Z,0
2018-12-25T06:14:41.281Z,0
2018-12-25T06:15:42.661Z,0
2018-12-25T06:16:44.039Z,0
2018-12-25T06:17:45.419Z,0
2018-12-25T06:18:46.800Z,0
2018-12-25T06:19:48.178Z,0
2018-12-25T06:20:55.084Z,0
2018-12-25T06:21:50.903Z,0
2018-12-25T06:22:52.278Z,0
2018-12-25T06:23:53.655Z,0
2018-12-25T06:24:55.035Z,0
2018-12-25T06:25:56.411Z,0
2018-12-25T06:26:57.796Z,0
2018-12-25T06:27:59.271Z,0
2018-12-25T06:29:00.709Z,0
2018-12-25T06:30:02.049Z,0
2018-12-25T06:31:03.427Z,0
2018-12-25T06:32:04.872Z,0
2018-12-25T06:33:06.146Z,0
2018-12-25T06:34:07.525Z,0
2018-12-25T06:35:08.902Z,0
2018-12-25T06:36:10.277Z,0
2018-12-25T06:37:11.657Z,0
2018-12-25T06:38:13.033Z,0
2018-12-25T06:39:14.411Z,0
2018-12-25T06:40:15.799Z,0
2018-12-25T06:41:17.171Z,0
2018-12-25T06:42:18.650Z,0
2018-12-25T06:43:19.893Z,0
2018-12-25T06:44:21.268Z,0
2018-12-25T06:45:22.649Z,0
2018-12-25T06:46:24.122Z,0
2018-12-25T06:47:25.373Z,0
2018-12-25T06:48:26.756Z,0
2018-12-25T06:49:28.132Z,0
2018-12-25T06:50:29.512Z,0
2018-12-25T06:51:30.908Z,0
2018-12-25T06:52:32.271Z,0
2018-12-25T06:53:33.655Z,0
2018-12-25T06:54:35.032Z,0
2018-12-25T06:55:36.411Z,0
2018-12-25T06:56:37.795Z,0
2018-12-25T06:57:39.167Z,0
2018-12-25T06:58:40.548Z,0
2018-12-25T06:59:41.927Z,0
2018-12-25T07:00:43.311Z,0
2018-12-25T07:01:44.695Z,0
2018-12-25T07:02:46.076Z,0
2018-12-25T07:03:47.459Z,0
2018-12-25T07:04:48.837Z,0
2018-12-25T07:05:50.216Z,0
2018-12-25T07:06:51.596Z,0
2018-12-25T07:07:52.975Z,0
2018-12-25T07:08:54.354Z,4
2018-12-25T07:09:55.737Z,4
2018-12-25T07:10:57.120Z,0
2018-12-25T07:11:58.492Z,0
2018-12-25T07:12:59.874Z,0
2018-12-25T07:14:01.252Z,4
2018-12-25T07:15:02.633Z,0
2018-12-25T07:16:04.013Z,4
2018-12-25T07:17:05.396Z,4
2018-12-25T07:18:06.776Z,8
2018-12-25T07:19:08.255Z,4
2018-12-25T07:20:09.684Z,8
2018-12-25T07:21:12.266Z,4
2018-12-25T07:22:12.410Z,8
2018-12-25T07:23:13.790Z,8
2018-12-25T07:24:15.169Z,12
2018-12-25T07:25:16.549Z,12
2018-12-25T07:26:17.925Z,12
2018-12-25T07:27:19.308Z,16
2018-12-25T07:28:20.687Z,16
2018-12-25T07:29:22.070Z,20
2018-12-25T07:30:23.454Z,20
2018-12-25T07:31:24.835Z,24
2018-12-25T07:32:26.178Z,24
2018-12-25T07:33:27.556Z,28
2018-12-25T07:34:28.934Z,32
2018-12-25T07:35:30.314Z,36
2018-12-25T07:36:31.697Z,40
2018-12-25T07:37:33.077Z,44
2018-12-25T07:38:34.457Z,44
2018-12-25T07:39:35.843Z,52
2018-12-25T07:40:37.219Z,60
2018-12-25T07:41:38.599Z,64
2018-12-25T07:42:39.978Z,68
2018-12-25T07:43:41.361Z,72
2018-12-25T07:44:42.739Z,76
2018-12-25T07:45:44.122Z,84
2018-12-25T07:46:45.503Z,92
2018-12-25T07:47:46.888Z,100
2018-12-25T07:48:48.272Z,100
2018-12-25T07:49:49.652Z,104
2018-12-25T07:50:51.038Z,108
2018-12-25T07:51:52.418Z,116
2018-12-25T07:52:53.803Z,124
2018-12-25T07:53:55.195Z,132
2018-12-25T07:54:56.574Z,140
2018-12-25T07:55:57.954Z,160
2018-12-25T07:56:59.337Z,180
2018-12-25T07:58:00.716Z,192
2018-12-25T07:59:02.096Z,200
2018-12-25T08:00:03.479Z,200
2018-12-25T08:01:04.862Z,196
2018-12-25T08:02:06.240Z,196
2018-12-25T08:03:07.619Z,204
2018-12-25T08:04:09.003Z,212
2018-12-25T08:05:10.390Z,216
2018-12-25T08:06:11.772Z,232
2018-12-25T08:07:13.156Z,248
2018-12-25T08:08:14.543Z,268
2018-12-25T08:09:15.925Z,284
2018-12-25T08:10:17.391Z,308
2018-12-25T08:11:18.803Z,332
2018-12-25T08:12:20.184Z,368
2018-12-25T08:13:21.565Z,408
2018-12-25T08:14:22.951Z,440
2018-12-25T08:15:24.344Z,468
2018-12-25T08:16:25.726Z,484
2018-12-25T08:17:27.108Z,492
2018-12-25T08:18:28.537Z,512
2018-12-25T08:19:29.921Z,552
2018-12-25T08:20:31.303Z,560
2018-12-25T08:21:32.687Z,584
2018-12-25T08:22:34.069Z,628
2018-12-25T08:23:35.451Z,624
2018-12-25T08:24:36.832Z,600
2018-12-25T08:25:38.253Z,604
2018-12-25T08:26:39.634Z,668
2018-12-25T08:27:41.018Z,700
2018-12-25T08:28:42.401Z,684
2018-12-25T08:29:43.785Z,700
2018-12-25T08:30:45.163Z,688
2018-12-25T08:31:46.511Z,664
2018-12-25T08:32:47.894Z,660
2018-12-25T08:33:49.289Z,696
2018-12-25T08:34:50.672Z,704
2018-12-25T08:35:52.056Z,724
2018-12-25T08:36:53.553Z,752
2018-12-25T08:37:54.955Z,816
2018-12-25T08:38:56.338Z,832
2018-12-25T08:39:57.714Z,836
2018-12-25T08:40:59.099Z,824
2018-12-25T08:42:00.483Z,824
2018-12-25T08:43:01.866Z,892
2018-12-25T08:44:03.286Z,864
2018-12-25T08:45:04.666Z,864
2018-12-25T08:46:06.050Z,888
2018-12-25T08:47:07.431Z,960
2018-12-25T08:48:08.815Z,1000
2018-12-25T08:49:10.198Z,1012
2018-12-25T08:50:11.582Z,1032
2018-12-25T08:51:12.967Z,1056
2018-12-25T08:52:14.346Z,1144
2018-12-25T08:53:15.727Z,1208
2018-12-25T08:54:17.112Z,1244
2018-12-25T08:55:18.679Z,1236
2018-12-25T08:56:20.060Z,1240
2018-12-25T08:57:21.442Z,1296
2018-12-25T08:58:22.846Z,1288
2018-12-25T08:59:24.268Z,1296
2018-12-25T09:00:25.734Z,1252
2018-12-25T09:01:27.116Z,1176
2018-12-25T09:02:28.499Z,1192
2018-12-25T09:03:29.881Z,1188
2018-12-25T09:04:31.263Z,1348
2018-12-25T09:05:32.649Z,1548
2018-12-25T09:06:34.034Z,1664
2018-12-25T09:07:35.418Z,1676
2018-12-25T09:08:36.799Z,1664
2018-12-25T09:09:38.183Z,1664
2018-12-25T09:10:39.566Z,1608
2018-12-25T09:11:40.955Z,1556
2018-12-25T09:12:42.337Z,1540
2018-12-25T09:13:43.722Z,1516
2018-12-25T09:14:45.104Z,1520
2018-12-25T09:15:46.487Z,1484
2018-12-25T09:16:47.873Z,1460
2018-12-25T09:17:49.259Z,1432
2018-12-25T09:18:50.647Z,1480
2018-12-25T09:19:52.034Z,1628
2018-12-25T09:20:53.416Z,1652
2018-12-25T09:21:54.798Z,1712
2018-12-25T09:22:56.180Z,1776
2018-12-25T09:23:57.563Z,1964
2018-12-25T09:24:58.950Z,1960
2018-12-25T09:26:00.334Z,1880
2018-12-25T09:27:01.719Z,1964
2018-12-25T09:28:03.098Z,1944
2018-12-25T09:29:04.484Z,1812
2018-12-25T09:30:05.860Z,1808
2018-12-25T09:31:07.244Z,1888
2018-12-25T09:32:08.626Z,1816
2018-12-25T09:33:10.014Z,1852
2018-12-25T09:34:11.399Z,2020
2018-12-25T09:35:12.804Z,2140
2018-12-25T09:36:14.185Z,2288
2018-12-25T09:37:15.568Z,2348
2018-12-25T09:38:16.953Z,2380
2018-12-25T09:39:18.340Z,2424
2018-12-25T09:40:19.768Z,2504
2018-12-25T09:41:21.152Z,2596
2018-12-25T09:42:22.548Z,2504
2018-12-25T09:43:23.931Z,2472
2018-12-25T09:44:25.312Z,2408
2018-12-25T09:45:26.697Z,2400
2018-12-25T09:46:28.086Z,2468
2018-12-25T09:47:29.474Z,2364
2018-12-25T09:48:30.862Z,2340
2018-12-25T09:49:32.289Z,2264
2018-12-25T09:50:33.694Z,2372
2018-12-25T09:51:35.082Z,2528
2018-12-25T09:52:36.470Z,2652
2018-12-25T09:53:37.852Z,2836
2018-12-25T09:54:39.238Z,2976
2018-12-25T09:55:40.793Z,3076
2018-12-25T09:56:42.178Z,4116
2018-12-25T09:57:43.562Z,3984
2018-12-25T09:58:44.949Z,3356
2018-12-25T09:59:46.333Z,2920
2018-12-25T10:00:47.722Z,2844
2018-12-25T10:01:49.197Z,2800
2018-12-25T10:02:50.456Z,2764
2018-12-25T10:03:51.838Z,2868
2018-12-25T10:04:53.231Z,3020
2018-12-25T10:05:54.614Z,3036
2018-12-25T10:06:56.002Z,3128
2018-12-25T10:07:57.385Z,3028
2018-12-25T10:08:58.770Z,3272
2018-12-25T10:10:00.166Z,5340
2018-12-25T10:11:01.712Z,5576
2018-12-25T10:12:03.093Z,3168
2018-12-25T10:13:04.479Z,2824
2018-12-25T10:14:05.865Z,2676
2018-12-25T10:15:07.312Z,2632
2018-12-25T10:16:08.695Z,2588
2018-12-25T10:17:10.066Z,2472
2018-12-25T10:18:11.454Z,2252
2018-12-25T10:19:12.833Z,2076
2018-12-25T10:20:14.218Z,1976
2018-12-25T10:21:15.602Z,2000
2018-12-25T10:22:16.990Z,2116
2018-12-25T10:23:18.377Z,2100
2018-12-25T10:24:19.764Z,1996
2018-12-25T10:25:21.149Z,1816
2018-12-25T10:26:22.532Z,1656
2018-12-25T10:27:23.915Z,1676
2018-12-25T10:28:25.299Z,1700
2018-12-25T10:29:26.686Z,1700
2018-12-25T10:30:28.072Z,1632
2018-12-25T10:31:29.466Z,1484
2018-12-25T10:32:30.852Z,1420
2018-12-25T10:33:32.232Z,1428
2018-12-25T10:34:33.622Z,1508
2018-12-25T10:35:34.996Z,1620
2018-12-25T10:36:36.381Z,1768
2018-12-25T10:37:37.768Z,1964
2018-12-25T10:38:39.152Z,2252
2018-12-25T10:39:40.621Z,2708
2018-12-25T10:40:42.030Z,3284
2018-12-25T10:41:43.418Z,3848
2018-12-25T10:42:44.803Z,4116
2018-12-25T10:43:46.190Z,5152
2018-12-25T10:44:47.574Z,5952
2018-12-25T10:45:48.978Z,4072
2018-12-25T10:46:50.342Z,4016
2018-12-25T10:47:51.793Z,4132
2018-12-25T10:48:53.112Z,3560
2018-12-25T10:49:54.516Z,3484
2018-12-25T10:50:55.890Z,3692
2018-12-25T10:51:57.289Z,4028
2018-12-25T10:52:58.672Z,4432
2018-12-25T10:54:00.379Z,4976
2018-12-25T10:55:01.767Z,4720
2018-12-25T10:56:03.146Z,4472
2018-12-25T10:57:04.533Z,4296
2018-12-25T10:58:05.930Z,3848
2018-12-25T10:59:07.318Z,4924
2018-12-25T11:00:08.705Z,4168
2018-12-25T11:01:10.086Z,4244
2018-12-25T11:02:11.478Z,4424
2018-12-25T11:03:13.152Z,4712
2018-12-25T11:04:14.377Z,4512
2018-12-25T11:05:15.809Z,3972
2018-12-25T11:06:17.205Z,3784
2018-12-25T11:07:18.589Z,4112
2018-12-25T11:08:19.969Z,3756
2018-12-25T11:09:21.356Z,3708
2018-12-25T11:10:22.886Z,3812
2018-12-25T11:11:24.273Z,3748
2018-12-25T11:12:25.657Z,3668
2018-12-25T11:13:27.044Z,4016
2018-12-25T11:14:28.434Z,3352
2018-12-25T11:15:29.825Z,3176
2018-12-25T11:16:31.210Z,3220
2018-12-25T11:17:32.963Z,3192
2018-12-25T11:18:34.350Z,3200
2018-12-25T11:19:35.739Z,3316
2018-12-25T11:20:37.124Z,3116
2018-12-25T11:21:38.512Z,3172
2018-12-25T11:22:39.916Z,3148
2018-12-25T11:23:41.734Z,2980
2018-12-25T11:24:43.094Z,2856
2018-12-25T11:25:44.553Z,2804
2018-12-25T11:26:46.215Z,2936
2018-12-25T11:27:47.721Z,3044
2018-12-25T11:28:49.521Z,3048
2018-12-25T11:29:51.270Z,3092
2018-12-25T11:30:52.897Z,3156
2018-12-25T11:31:54.586Z,3272
2018-12-25T11:32:55.970Z,3320
2018-12-25T11:33:57.494Z,3208
2018-12-25T11:34:58.878Z,3164
2018-12-25T11:36:00.306Z,3136
2018-12-25T11:37:01.970Z,3160
2018-12-25T11:38:03.583Z,3188
2018-12-25T11:39:05.405Z,3108
2018-12-25T11:40:06.788Z,3112
2018-12-25T11:41:08.396Z,3240
2018-12-25T11:42:09.786Z,3328
2018-12-25T11:43:11.172Z,3416
2018-12-25T11:44:12.558Z,3480
2018-12-25T11:45:14.022Z,5272
2018-12-25T11:46:15.404Z,4608
2018-12-25T11:47:17.789Z,3064
2018-12-25T11:48:19.179Z,2692
2018-12-25T11:49:20.564Z,2448
2018-12-25T11:50:21.948Z,2320
2018-12-25T11:51:23.726Z,2268
2018-12-25T11:52:28.556Z,2228
2018-12-25T11:53:26.460Z,2116
2018-12-25T11:54:28.003Z,2084
2018-12-25T11:55:29.672Z,2012
2018-12-25T11:56:31.342Z,1956
2018-12-25T11:57:33.093Z,1872
2018-12-25T11:58:34.460Z,1872
2018-12-25T11:59:35.841Z,1888
2018-12-25T12:00:37.830Z,1872
2018-12-25T12:01:39.130Z,1868
2018-12-25T12:02:40.525Z,1888
2018-12-25T12:03:41.899Z,1932
2018-12-25T12:04:43.283Z,2008
2018-12-25T12:05:44.719Z,2136
2018-12-25T12:06:46.179Z,2232
2018-12-25T12:07:47.648Z,2280
2018-12-25T12:08:49.119Z,2296
2018-12-25T12:09:50.502Z,2392
2018-12-25T12:10:51.891Z,2508
2018-12-25T12:11:53.288Z,2728
2018-12-25T12:12:54.676Z,2572
2018-12-25T12:13:56.708Z,2580
2018-12-25T12:14:58.641Z,2488
2018-12-25T12:16:00.233Z,2532
2018-12-25T12:17:01.626Z,2572
2018-12-25T12:18:03.012Z,2696
2018-12-25T12:19:04.407Z,2968
2018-12-25T12:20:05.798Z,3140
2018-12-25T12:21:07.373Z,5064
2018-12-25T12:22:08.754Z,2548
2018-12-25T12:23:10.140Z,2648
2018-12-25T12:24:11.526Z,2872
2018-12-25T12:25:13.489Z,2444
2018-12-25T12:26:14.873Z,2276
2018-12-25T12:27:16.254Z,2196
2018-12-25T12:28:17.697Z,2184
2018-12-25T12:29:19.077Z,2120
2018-12-25T12:30:20.580Z,2040
2018-12-25T12:31:22.375Z,2108
2018-12-25T12:32:23.759Z,2184
2018-12-25T12:33:25.159Z,2344
2018-12-25T12:34:26.549Z,2364
2018-12-25T12:35:28.447Z,2428
2018-12-25T12:36:30.139Z,2368
2018-12-25T12:37:32.041Z,2380
2018-12-25T12:38:33.528Z,2400
2018-12-25T12:39:35.140Z,2412
2018-12-25T12:40:36.906Z,2892
2018-12-25T12:41:38.605Z,3176
2018-12-25T12:42:39.994Z,3388
2018-12-25T12:43:41.376Z,3148
2018-12-25T12:44:42.765Z,3144
2018-12-25T12:45:44.154Z,4292
2018-12-25T12:46:45.573Z,5004
2018-12-25T12:47:46.965Z,5768
2018-12-25T12:48:48.664Z,5052
2018-12-25T12:49:50.064Z,5144
2018-12-25T12:50:51.433Z,3152
2018-12-25T12:51:53.485Z,3020
2018-12-25T12:52:55.030Z,3228
2018-12-25T12:53:56.570Z,3512
2018-12-25T12:54:57.964Z,3864
2018-12-25T12:55:59.426Z,3788
2018-12-25T12:57:00.813Z,3220
2018-12-25T12:58:02.203Z,3180
2018-12-25T12:59:03.584Z,3432
2018-12-25T13:00:04.971Z,3640
2018-12-25T13:01:06.358Z,2496
2018-12-25T13:02:07.746Z,2392
2018-12-25T13:03:09.442Z,2176
2018-12-25T13:04:11.002Z,2100
2018-12-25T13:05:12.855Z,2096
2018-12-25T13:06:14.239Z,2112
2018-12-25T13:07:15.622Z,2140
2018-12-25T13:08:17.235Z,2136
2018-12-25T13:09:18.619Z,2124
2018-12-25T13:10:20.038Z,2152
2018-12-25T13:11:21.772Z,2204
2018-12-25T13:12:23.159Z,2252
2018-12-25T13:13:24.542Z,2248
2018-12-25T13:14:26.056Z,2356
2018-12-25T13:15:27.439Z,2200
2018-12-25T13:16:28.828Z,2168
2018-12-25T13:17:30.253Z,2240
2018-12-25T13:18:31.746Z,2248
2018-12-25T13:19:33.598Z,2172
2018-12-25T13:20:34.980Z,1968
2018-12-25T13:21:36.364Z,1724
2018-12-25T13:22:37.751Z,1592
2018-12-25T13:23:39.139Z,1556
2018-12-25T13:24:40.516Z,1592
2018-12-25T13:25:41.904Z,1664
2018-12-25T13:26:43.290Z,1692
2018-12-25T13:27:44.677Z,1732
2018-12-25T13:28:46.061Z,1692
2018-12-25T13:29:47.734Z,1612
2018-12-25T13:30:49.116Z,1604
2018-12-25T13:31:50.501Z,1648
2018-12-25T13:32:52.056Z,1736
2018-12-25T13:33:53.447Z,1836
2018-12-25T13:34:57.568Z,1892
2018-12-25T13:35:56.977Z,1808
2018-12-25T13:36:58.361Z,1676
2018-12-25T13:37:59.746Z,1596
2018-12-25T13:39:01.127Z,1596
2018-12-25T13:40:02.512Z,1612
2018-12-25T13:41:03.894Z,1592
2018-12-25T13:42:05.549Z,1560
2018-12-25T13:43:07.380Z,1504
2018-12-25T13:44:08.764Z,1468
2018-12-25T13:45:10.115Z,1460
2018-12-25T13:46:11.496Z,1556
2018-12-25T13:47:13.327Z,1664
2018-12-25T13:48:14.810Z,1640
2018-12-25T13:49:16.196Z,1576
2018-12-25T13:50:18.010Z,1560
2018-12-25T13:51:19.395Z,1604
2018-12-25T13:52:20.815Z,1596
2018-12-25T13:53:22.207Z,1588
2018-12-25T13:54:23.600Z,1492
2018-12-25T13:55:24.984Z,1408
2018-12-25T13:56:26.456Z,1344
2018-12-25T13:57:27.795Z,1340
2018-12-25T13:58:29.498Z,1336
2018-12-25T13:59:31.028Z,1304
2018-12-25T14:00:32.682Z,1256
2018-12-25T14:01:34.074Z,1236
2018-12-25T14:02:35.460Z,1212
2018-12-25T14:03:36.852Z,1172
2018-12-25T14:04:38.609Z,1116
2018-12-25T14:05:40.242Z,1036
2018-12-25T14:06:42.179Z,1012
2018-12-25T14:07:43.881Z,1000
2018-12-25T14:08:45.966Z,1016
2018-12-25T14:09:47.383Z,1056
2018-12-25T14:10:48.819Z,1068
2018-12-25T14:11:50.202Z,1044
2018-12-25T14:12:51.587Z,988
2018-12-25T14:13:53.147Z,932
2018-12-25T14:14:54.551Z,904
2018-12-25T14:15:55.939Z,860
2018-12-25T14:16:57.319Z,840
2018-12-25T14:17:58.707Z,820
2018-12-25T14:19:00.088Z,792
2018-12-25T14:20:01.471Z,784
2018-12-25T14:21:02.857Z,772
2018-12-25T14:22:04.235Z,788
2018-12-25T14:23:11.129Z,800
2018-12-25T14:24:06.967Z,784
2018-12-25T14:25:08.346Z,764